Time;durP1;ratioP1;P1;durP2;ratioP2;P2;SDS_P1;SDS_P2;PMS_P1;PMS_P2;Temp;Humidity;BMP_temperature;BMP_pressure;BME280_temperature;BME280_humidity;BME280_pressure;Samples;Min_cycle;Max_cycle;Signal;HPM_P1;HPM_P2
2022/04/11 00:01:29;;;;;;;17.67;13.45;;;;;;;5.39;57.56;95689.47;5073979;28;20469;-67
2022/04/11 00:03:55;;;;;;;15.40;12.13;;;;;;;5.74;58.02;95739.75;5073782;28;20051;-67
2022/04/11 00:06:20;;;;;;;16.08;12.70;;;;;;;5.68;57.99;95730.22;5073755;28;20029;-67
2022/04/11 00:08:46;;;;;;;15.68;11.40;;;;;;;5.45;58.06;95715.59;5073786;28;20039;-67
2022/04/11 00:11:11;;;;;;;19.38;12.00;;;;;;;5.56;58.05;95707.72;5073646;28;20470;-67
2022/04/11 00:13:37;;;;;;;17.98;12.07;;;;;;;5.50;57.85;95685.03;5073952;28;20032;-67
2022/04/11 00:16:02;;;;;;;22.83;13.60;;;;;;;5.48;57.40;95682.66;5073876;28;20025;-67
2022/04/11 00:18:28;;;;;;;16.25;11.10;;;;;;;5.64;57.66;95707.25;5073558;28;20024;-67
2022/04/11 00:20:53;;;;;;;14.70;11.52;;;;;;;5.25;57.87;95641.66;5072460;28;20369;-67
2022/04/11 00:23:18;;;;;;;13.00;11.02;;;;;;;5.57;57.70;95688.19;5073437;28;20135;-67
2022/04/11 00:25:44;;;;;;;13.50;11.00;;;;;;;5.72;57.54;95718.09;5073608;28;20032;-67
2022/04/11 00:28:10;;;;;;;17.45;11.38;;;;;;;5.59;57.90;95697.47;5073595;28;20489;-67
2022/04/11 00:30:35;;;;;;;12.70;11.40;;;;;;;5.58;58.11;95695.06;5073014;28;20370;-67
2022/04/11 00:33:01;;;;;;;12.88;11.27;;;;;;;5.33;57.29;95661.47;5073234;28;20025;-68
2022/04/11 00:35:26;;;;;;;16.70;11.20;;;;;;;5.37;57.56;95667.81;5072792;28;20029;-67
2022/04/11 00:37:52;;;;;;;12.85;10.88;;;;;;;5.70;57.55;95722.03;5072901;28;20038;-67
2022/04/11 00:40:19;;;;;;;14.52;11.38;;;;;;;5.70;57.74;95729.97;5072793;28;20040;-67
2022/04/11 00:42:47;;;;;;;12.27;10.82;;;;;;;5.55;57.77;95700.88;5073101;28;20066;-68
2022/04/11 00:45:13;;;;;;;12.18;10.48;;;;;;;5.51;58.14;95687.41;5073254;28;20020;-68
2022/04/11 00:47:38;;;;;;;14.00;9.73;;;;;;;5.28;57.63;95640.34;5073356;28;20017;-67
2022/04/11 00:50:08;;;;;;;13.38;11.50;;;;;;;5.73;57.65;95714.41;5072920;28;20477;-67
2022/04/11 00:52:37;;;;;;;14.98;10.23;;;;;;;5.45;57.90;95678.66;5073238;28;20059;-67
2022/04/11 00:55:04;;;;;;;14.90;11.15;;;;;;;5.54;57.92;95683.47;5072708;28;20021;-68
2022/04/11 00:57:30;;;;;;;16.38;10.15;;;;;;;4.84;57.42;95582.66;5072992;28;20028;-67
2022/04/11 00:59:57;;;;;;;12.60;10.65;;;;;;;5.43;57.68;95667.59;5072945;28;20029;-68
2022/04/11 01:02:22;;;;;;;11.25;10.05;;;;;;;5.46;57.67;95676.81;5072616;28;20073;-68
2022/04/11 01:04:47;;;;;;;16.00;11.10;;;;;;;5.46;57.18;95669.69;5073034;28;20111;-68
2022/04/11 01:07:13;;;;;;;10.63;9.60;;;;;;;5.53;57.44;95677.38;5072781;28;20032;-68
2022/04/11 01:09:40;;;;;;;14.30;10.50;;;;;;;5.50;57.14;95683.16;5073000;28;20548;-67
2022/04/11 01:12:05;;;;;;;11.43;10.32;;;;;;;5.45;57.52;95668.13;5071950;28;20528;-67
2022/04/11 01:14:30;;;;;;;15.15;11.15;;;;;;;5.63;57.60;95695.09;5072833;28;20108;-68
2022/04/11 01:16:57;;;;;;;12.77;10.85;;;;;;;5.62;57.57;95696.13;5072838;28;20069;-67
2022/04/11 01:19:23;;;;;;;13.32;10.88;;;;;;;5.60;57.04;95693.78;5072576;28;20115;-68
2022/04/11 01:21:49;;;;;;;11.02;9.85;;;;;;;5.42;57.39;95678.38;5072206;28;20488;-67
2022/04/11 01:24:18;;;;;;;13.32;10.38;;;;;;;5.16;57.23;95633.44;5072828;28;20036;-68
2022/04/11 01:26:45;;;;;;;10.80;9.70;;;;;;;5.22;57.06;95644.81;5072530;28;20545;-67
2022/04/11 01:29:12;;;;;;;11.60;10.40;;;;;;;5.40;57.50;95675.22;5072274;28;20033;-68
2022/04/11 01:31:37;;;;;;;13.73;9.55;;;;;;;5.19;56.83;95647.97;5071804;28;20465;-67
2022/04/11 01:34:03;;;;;;;10.43;9.18;;;;;;;5.26;57.48;95653.00;5072454;28;20067;-66
2022/04/11 01:36:28;;;;;;;11.07;9.52;;;;;;;5.25;57.20;95651.41;5071890;28;20028;-67
2022/04/11 01:38:54;;;;;;;16.27;11.48;;;;;;;5.60;56.92;95712.25;5071998;28;20035;-67
2022/04/11 01:41:22;;;;;;;13.75;10.75;;;;;;;5.21;57.26;95654.53;5071855;28;20097;-67
2022/04/11 01:43:48;;;;;;;15.00;9.98;;;;;;;5.45;57.34;95691.84;5072122;28;20035;-67
2022/04/11 01:46:13;;;;;;;16.23;10.15;;;;;;;5.38;57.16;95679.97;5072172;28;20111;-66
2022/04/11 01:48:39;;;;;;;12.50;10.43;;;;;;;5.33;57.23;95679.94;5072181;28;20028;-67
2022/04/11 01:51:05;;;;;;;11.40;10.20;;;;;;;5.37;57.30;95686.28;5071516;28;20025;-67
2022/04/11 01:53:30;;;;;;;14.25;10.65;;;;;;;5.33;57.55;95677.31;5071973;28;20033;-67
2022/04/11 01:55:56;;;;;;;12.00;10.15;;;;;;;5.34;57.20;95694.72;5071906;28;20432;-66
2022/04/11 01:58:21;;;;;;;12.40;10.48;;;;;;;5.11;57.11;95648.44;5071987;28;20413;-68
2022/04/11 02:00:47;;;;;;;12.07;9.98;;;;;;;5.22;57.47;95658.78;5071358;28;20071;-67
2022/04/11 02:03:13;;;;;;;12.18;9.02;;;;;;;5.20;57.49;95642.41;5071725;28;20035;-68
2022/04/11 02:05:39;;;;;;;12.82;9.50;;;;;;;5.37;57.38;95665.97;5071646;28;20032;-67
2022/04/11 02:08:07;;;;;;;10.98;9.10;;;;;;;5.18;57.12;95614.72;5071734;28;20028;-67
2022/04/11 02:10:33;;;;;;;12.23;8.25;;;;;;;5.31;57.51;95624.00;5071447;28;20457;-67
2022/04/11 02:12:58;;;;;;;11.43;8.73;;;;;;;5.46;57.23;95643.31;5071478;28;20108;-67
2022/04/11 02:15:24;;;;;;;10.00;8.98;;;;;;;5.92;56.87;95690.19;5071606;28;20366;-67
2022/04/11 02:17:50;;;;;;;9.23;8.18;;;;;;;5.77;56.80;95664.50;5071406;28;20410;-67
2022/04/11 02:20:16;;;;;;;13.93;8.30;;;;;;;5.71;56.88;95631.25;5070987;28;20032;-67
2022/04/11 02:22:50;;;;;;;9.80;7.75;;;;;;;5.21;56.34;95556.97;5071445;28;20574;-67
2022/04/11 02:25:16;;;;;;;10.02;9.02;;;;;;;5.96;56.29;95678.06;5071440;28;20033;-68
2022/04/11 02:27:43;;;;;;;13.30;7.72;;;;;;;6.04;56.10;95677.56;5070708;28;20058;-67
2022/04/11 02:30:09;;;;;;;10.15;8.00;;;;;;;5.59;56.24;95597.19;5069878;28;20517;-67
2022/04/11 02:32:34;;;;;;;16.70;8.65;;;;;;;5.92;56.20;95646.09;5071080;28;20039;-67
2022/04/11 02:35:00;;;;;;;9.68;8.15;;;;;;;5.69;56.58;95610.41;5071214;28;20032;-67
2022/04/11 02:37:25;;;;;;;9.27;7.80;;;;;;;5.89;56.34;95638.69;5071306;28;20071;-67
2022/04/11 02:39:51;;;;;;;8.43;7.63;;;;;;;6.08;55.82;95664.59;5071215;28;20035;-67
2022/04/11 02:42:24;;;;;;;11.50;7.90;;;;;;;6.10;56.31;95676.50;5069935;28;20487;-67
2022/04/11 02:44:50;;;;;;;8.25;7.43;;;;;;;5.58;55.87;95587.69;5071415;28;20056;-67
2022/04/11 02:47:15;;;;;;;14.70;7.40;;;;;;;5.71;55.88;95608.28;5071080;28;20056;-66
2022/04/11 02:49:40;;;;;;;7.78;7.07;;;;;;;5.86;56.29;95643.69;5071203;28;20033;-67
2022/04/11 02:52:06;;;;;;;13.00;7.78;;;;;;;5.78;55.85;95629.13;5070645;28;20036;-68
2022/04/11 02:54:31;;;;;;;7.75;6.95;;;;;;;5.93;56.24;95652.16;5071141;28;20021;-67
2022/04/11 02:56:56;;;;;;;8.60;6.47;;;;;;;5.58;56.17;95602.69;5071130;28;20086;-67
2022/04/11 02:59:23;;;;;;;9.20;6.72;;;;;;;5.43;56.38;95585.81;5070982;28;20029;-67
2022/04/11 03:01:48;;;;;;;7.68;6.97;;;;;;;5.87;56.18;95647.91;5070410;28;20029;-66
2022/04/11 03:04:13;;;;;;;9.30;7.50;;;;;;;5.47;55.71;95588.69;5070689;28;20108;-66
2022/04/11 03:06:39;;;;;;;9.45;7.25;;;;;;;5.64;56.07;95628.06;5070780;28;20465;-67
2022/04/11 03:09:04;;;;;;;9.63;6.82;;;;;;;5.70;56.13;95632.31;5070753;28;20174;-67
2022/04/11 03:11:30;;;;;;;9.52;7.05;;;;;;;5.72;55.96;95638.09;5052238;28;20032;-66
2022/04/11 03:13:55;;;;;;;7.38;6.50;;;;;;;5.83;55.74;95646.84;5070836;28;20040;-67
2022/04/11 03:16:20;;;;;;;7.88;7.07;;;;;;;5.48;56.36;95606.94;5070569;28;20032;-67
2022/04/11 03:18:46;;;;;;;7.35;6.05;;;;;;;5.69;55.79;95626.25;5070580;28;20069;-66
2022/04/11 03:21:11;;;;;;;8.32;6.05;;;;;;;5.63;56.43;95605.34;5070050;28;20035;-68
2022/04/11 03:23:36;;;;;;;6.78;6.07;;;;;;;5.43;55.71;95551.50;5070665;28;20379;-67
2022/04/11 03:26:02;;;;;;;7.22;6.00;;;;;;;6.03;56.23;95652.19;5070653;28;20446;-67
2022/04/11 03:28:27;;;;;;;7.70;6.38;;;;;;;5.59;55.86;95578.72;5052408;28;20020;-67
2022/04/11 03:30:53;;;;;;;6.68;6.07;;;;;;;5.63;56.04;95571.88;5070094;28;20024;-67
2022/04/11 03:33:18;;;;;;;8.68;5.70;;;;;;;5.69;55.97;95576.09;5070460;28;20551;-66
2022/04/11 03:35:43;;;;;;;6.55;5.70;;;;;;;5.85;55.13;95598.03;5070595;28;20036;-66
2022/04/11 03:38:08;;;;;;;6.72;5.57;;;;;;;5.56;55.25;95541.50;5070590;28;20085;-67
2022/04/11 03:40:34;;;;;;;6.85;6.03;;;;;;;5.93;55.20;95610.72;5070197;28;20158;-67
2022/04/11 03:42:59;;;;;;;10.82;5.60;;;;;;;5.85;55.41;95591.94;5071061;28;20036;-68
2022/04/11 03:45:25;;;;;;;9.07;5.47;;;;;;;5.87;55.37;95593.25;5070939;28;20032;-67
2022/04/11 03:47:50;;;;;;;6.03;5.22;;;;;;;5.86;55.19;95617.28;5053004;28;20488;-69
2022/04/11 03:50:15;;;;;;;5.70;5.20;;;;;;;5.99;55.43;95635.31;5070161;28;20029;-67
2022/04/11 03:52:41;;;;;;;7.72;4.97;;;;;;;5.87;54.77;95597.75;5070721;28;20039;-68
2022/04/11 03:55:06;;;;;;;8.45;7.00;;;;;;;5.59;54.43;95547.03;5055851;28;20120;-67
2022/04/11 03:57:33;;;;;;;9.05;6.18;;;;;;;5.88;54.65;95594.84;5074264;28;20055;-67
2022/04/11 03:59:59;;;;;;;5.97;5.38;;;;;;;5.79;54.83;95572.69;5074007;28;20071;-66
2022/04/11 04:02:24;;;;;;;7.63;6.30;;;;;;;5.86;55.04;95601.44;5073894;28;20029;-66
2022/04/11 04:04:49;;;;;;;5.95;5.30;;;;;;;5.84;55.06;95577.16;5073899;28;20678;-67
2022/04/11 04:07:15;;;;;;;7.13;5.05;;;;;;;5.98;54.43;95600.16;5056115;28;20036;-67
2022/04/11 04:13:05;;;;;;;6.97;5.45;;;;;;;5.48;54.43;95522.50;5070607;28;20031;-68
2022/04/11 04:15:30;;;;;;;7.30;5.55;;;;;;;5.83;54.90;95568.44;5055605;28;20078;-67
2022/04/11 04:17:56;;;;;;;8.57;7.25;;;;;;;6.06;54.89;95601.50;5073617;28;20428;-67
2022/04/11 04:20:26;;;;;;;10.07;8.02;;;;;;;6.01;54.78;95590.94;5055492;28;20020;-67
2022/04/11 04:22:55;;;;;;;7.07;6.43;;;;;;;5.93;55.08;95580.88;5073671;28;20024;-68
2022/04/11 04:25:21;;;;;;;10.05;7.13;;;;;;;6.00;55.01;95573.50;5073807;28;20710;-67
2022/04/11 04:27:47;;;;;;;9.65;7.30;;;;;;;5.84;54.97;95542.84;5073335;28;20112;-67
2022/04/11 04:30:12;;;;;;;11.48;7.60;;;;;;;5.91;55.30;95546.81;5073021;28;20017;-69
2022/04/11 04:32:38;;;;;;;9.10;7.72;;;;;;;6.12;55.13;95576.66;5073479;28;20028;-67
2022/04/11 04:35:05;;;;;;;7.78;7.07;;;;;;;5.95;54.85;95542.63;5055464;28;20025;-66
2022/04/11 04:37:31;;;;;;;8.65;7.72;;;;;;;6.16;55.12;95583.00;5073017;28;20473;-67
2022/04/11 04:39:56;;;;;;;8.32;6.85;;;;;;;6.11;55.29;95559.25;5073558;28;20124;-68
2022/04/11 04:42:23;;;;;;;10.35;7.97;;;;;;;6.20;54.77;95570.06;5072930;28;20029;-66
2022/04/11 04:44:48;;;;;;;7.75;6.95;;;;;;;6.41;54.98;95581.41;5073036;28;20103;-67
2022/04/11 04:47:18;;;;;;;11.52;6.50;;;;;;;6.11;54.50;95543.41;5055133;28;20111;-67
2022/04/11 04:49:44;;;;;;;14.05;8.02;;;;;;;6.53;54.77;95581.13;5073022;28;20169;-67
2022/04/11 04:52:10;;;;;;;7.95;6.93;;;;;;;6.48;54.49;95568.72;5072700;28;20078;-68
2022/04/11 04:54:36;;;;;;;7.30;6.60;;;;;;;6.34;54.19;95535.97;5073055;28;20119;-68
2022/04/11 04:57:02;;;;;;;10.07;6.70;;;;;;;6.46;54.38;95553.13;5073063;28;20028;-67
2022/04/11 04:59:28;;;;;;;7.70;5.53;;;;;;;6.75;54.09;95579.75;5072900;28;20024;-67
2022/04/11 05:01:54;;;;;;;5.60;5.10;;;;;;;6.85;53.72;95581.56;5072599;28;20110;-67
2022/04/11 05:04:20;;;;;;;5.53;4.80;;;;;;;6.90;53.63;95568.34;5054805;28;20451;-67
2022/04/11 05:06:45;;;;;;;4.78;4.35;;;;;;;6.86;53.20;95543.50;5054365;28;20071;-66
2022/04/11 05:09:10;;;;;;;5.65;4.47;;;;;;;7.26;52.88;95578.78;5054807;28;20049;-67
2022/04/11 05:11:36;;;;;;;5.93;4.45;;;;;;;6.92;52.42;95505.41;5072277;28;20077;-67
2022/04/11 05:14:01;;;;;;;6.18;4.15;;;;;;;7.50;52.22;95578.94;5054814;28;20024;-67
2022/04/11 05:16:26;;;;;;;8.48;4.13;;;;;;;7.24;51.15;95512.91;5072726;28;20428;-68
2022/04/11 05:18:52;;;;;;;4.68;3.80;;;;;;;7.41;50.89;95523.13;5072942;28;20063;-67
2022/04/11 05:21:17;;;;;;;5.55;3.50;;;;;;;7.33;50.56;95486.66;5071764;28;20024;-67
2022/04/11 05:23:42;;;;;;;3.83;2.70;;;;;;;7.63;49.94;95530.69;5072190;28;20120;-67
2022/04/11 05:26:08;;;;;;;5.10;3.17;;;;;;;7.45;50.42;95488.97;5072306;28;20024;-67
2022/04/11 05:28:34;;;;;;;3.75;3.00;;;;;;;8.07;49.58;95566.91;5072405;28;20139;-68
2022/04/11 05:30:59;;;;;;;3.35;2.80;;;;;;;8.06;49.56;95546.78;5072106;28;20104;-67
2022/04/11 05:33:25;;;;;;;4.07;3.38;;;;;;;8.09;49.29;95543.59;5072271;28;20400;-67
2022/04/11 05:35:51;;;;;;;5.65;2.90;;;;;;;8.01;48.86;95534.34;5072179;28;20461;-68
2022/04/11 05:38:16;;;;;;;4.57;3.60;;;;;;;8.07;48.06;95522.66;5054002;28;20039;-67
2022/04/11 05:40:46;;;;;;;5.90;3.88;;;;;;;8.34;48.07;95546.00;5053960;28;20036;-68
2022/04/11 05:43:14;;;;;;;6.55;3.70;;;;;;;8.16;47.56;95506.16;5072009;28;20020;-68
2022/04/11 05:45:41;;;;;;;3.80;2.78;;;;;;;8.36;48.47;95564.31;5071874;28;20115;-66
2022/04/11 05:48:06;;;;;;;6.80;2.92;;;;;;;8.28;47.50;95541.03;5072195;28;20065;-66
2022/04/11 05:50:32;;;;;;;3.90;2.83;;;;;;;8.62;48.00;95561.41;5071402;28;20119;-66
2022/04/11 05:52:57;;;;;;;4.07;2.90;;;;;;;8.57;47.68;95560.38;5071885;28;20525;-68
2022/04/11 05:55:26;;;;;;;4.03;2.88;;;;;;;8.85;46.65;95545.53;5071746;28;20024;-68
2022/04/11 05:57:52;;;;;;;2.33;2.13;;;;;;;8.94;46.23;95542.22;5054160;28;20035;-67
2022/04/11 06:00:18;;;;;;;7.57;2.83;;;;;;;9.10;45.91;95568.28;5071625;28;20043;-70
2022/04/11 06:02:44;;;;;;;5.10;2.45;;;;;;;9.04;45.59;95536.81;5071573;28;20492;-67
2022/04/11 06:05:09;;;;;;;3.13;2.70;;;;;;;9.18;45.56;95550.97;5071510;28;20028;-68
2022/04/11 06:07:35;;;;;;;3.00;2.58;;;;;;;9.25;45.12;95556.72;5071551;28;20430;-66
2022/04/11 06:10:01;;;;;;;2.60;2.40;;;;;;;8.99;45.09;95518.28;5071235;28;20028;-66
2022/04/11 06:12:26;;;;;;;4.03;2.45;;;;;;;8.82;45.04;95476.31;5071397;28;20024;-67
2022/04/11 06:14:56;;;;;;;2.78;2.28;;;;;;;9.18;44.77;95535.03;5070631;28;20025;-66
2022/04/11 06:17:23;;;;;;;6.18;2.80;;;;;;;8.84;45.33;95458.25;5071058;28;20107;-63
2022/04/11 06:19:57;;;;;;;3.40;2.50;;;;;;;9.41;45.07;95517.47;5071579;28;20504;-66
2022/04/11 06:22:23;;;;;;;4.00;2.28;;;;;;;9.69;44.63;95541.53;5071299;28;20028;-66
2022/04/11 06:24:49;;;;;;;2.75;2.55;;;;;;;9.72;44.03;95517.81;5071430;28;20020;-68
2022/04/11 06:27:15;;;;;;;5.60;2.53;;;;;;;9.85;43.97;95522.41;5071485;28;20036;-66
2022/04/11 06:29:42;;;;;;;5.05;2.38;;;;;;;10.01;43.82;95520.31;5070362;28;20032;-68
2022/04/11 06:32:08;;;;;;;2.50;2.17;;;;;;;10.49;43.11;95580.44;5070683;28;20028;-64
2022/04/11 06:34:34;;;;;;;2.50;2.30;;;;;;;10.65;43.08;95571.13;5071193;28;20553;-66
2022/04/11 06:37:00;;;;;;;5.30;2.70;;;;;;;10.73;42.53;95578.41;5071354;28;20044;-67
2022/04/11 06:39:27;;;;;;;4.57;2.42;;;;;;;10.71;42.77;95569.16;5053183;28;20481;-65
2022/04/11 06:41:53;;;;;;;3.15;1.90;;;;;;;10.74;42.50;95580.00;5070856;28;20032;-65
2022/04/11 06:44:19;;;;;;;3.78;2.65;;;;;;;10.64;42.22;95561.53;5070423;28;20029;-69
2022/04/11 06:46:44;;;;;;;4.78;2.03;;;;;;;10.24;42.12;95504.56;5071036;28;20078;-66
2022/04/11 06:49:10;;;;;;;2.88;2.40;;;;;;;10.72;41.78;95576.06;5071311;28;20028;-66
2022/04/11 06:51:35;;;;;;;2.17;1.98;;;;;;;10.72;42.32;95576.84;5070956;28;20036;-66
2022/04/11 06:54:01;;;;;;;4.03;2.28;;;;;;;10.37;42.19;95531.16;5070812;28;20464;-66
2022/04/11 06:56:26;;;;;;;2.78;2.25;;;;;;;9.92;42.27;95465.44;5070775;28;20021;-67
2022/04/11 06:58:52;;;;;;;5.60;2.38;;;;;;;10.55;42.21;95550.03;5069603;28;20420;-66
2022/04/11 07:01:17;;;;;;;3.47;2.40;;;;;;;10.28;41.69;95505.53;5070673;28;20111;-67
2022/04/11 07:03:43;;;;;;;5.53;2.33;;;;;;;10.07;42.63;95497.88;5053103;28;20109;-65
2022/04/11 07:06:09;;;;;;;5.25;2.50;;;;;;;9.97;42.19;95534.47;5070685;28;20115;-65
2022/04/11 07:08:34;;;;;;;3.97;2.40;;;;;;;9.84;42.44;95534.13;5070912;28;20028;-65
2022/04/11 07:11:00;;;;;;;2.88;2.28;;;;;;;9.79;41.99;95538.72;5070589;28;20024;-65
2022/04/11 07:13:26;;;;;;;2.42;1.92;;;;;;;9.47;43.08;95529.63;5070037;28;20050;-66
2022/04/11 07:15:52;;;;;;;2.90;2.22;;;;;;;9.17;42.79;95496.31;5070759;28;20027;-65
2022/04/11 07:18:19;;;;;;;2.53;2.28;;;;;;;9.77;42.85;95540.88;5070806;28;20069;-66
2022/04/11 07:20:45;;;;;;;3.03;2.30;;;;;;;9.73;42.39;95546.00;5070369;28;20426;-65
2022/04/11 07:23:11;;;;;;;3.10;1.98;;;;;;;9.06;42.41;95484.25;5070669;28;20028;-65
2022/04/11 07:25:36;;;;;;;2.50;2.00;;;;;;;9.86;42.14;95582.44;5070736;28;20385;-65
2022/04/11 07:28:02;;;;;;;3.22;2.40;;;;;;;9.85;42.14;95546.31;5070863;28;20074;-65
2022/04/11 07:30:27;;;;;;;3.80;1.80;;;;;;;8.80;42.08;95378.47;5073166;28;20032;-65
2022/04/11 07:32:53;;;;;;;3.78;2.50;;;;;;;9.14;41.89;95411.16;5074644;28;20027;-66
2022/04/11 07:35:18;;;;;;;4.88;2.13;;;;;;;9.24;42.19;95427.72;5074502;28;20047;-66
2022/04/11 07:37:44;;;;;;;3.08;2.40;;;;;;;9.98;42.47;95499.66;5074576;28;20025;-69
2022/04/11 07:40:10;;;;;;;2.35;1.88;;;;;;;10.74;41.33;95545.41;5074084;28;20028;-68
2022/04/11 07:42:36;;;;;;;5.95;2.42;;;;;;;11.03;40.97;95536.34;5056383;28;20025;-69
2022/04/11 07:45:01;;;;;;;2.47;2.20;;;;;;;11.55;40.86;95590.16;5073573;28;20028;-67
2022/04/11 07:47:26;;;;;;;3.10;2.22;;;;;;;11.38;39.51;95501.00;5074536;28;20107;-64
2022/04/11 07:49:52;;;;;;;4.45;2.08;;;;;;;10.98;38.71;95390.06;5074458;28;20036;-68
2022/04/11 07:52:18;;;;;;;3.08;2.30;;;;;;;10.98;37.66;95408.69;5073774;28;20063;-65
2022/04/11 07:54:43;;;;;;;3.58;2.15;;;;;;;10.98;37.89;95390.84;5055864;28;20483;-65
2022/04/11 07:57:09;;;;;;;3.97;2.20;;;;;;;12.10;37.06;95452.19;5074221;28;20481;-66
2022/04/11 07:59:34;;;;;;;4.78;2.45;;;;;;;13.07;36.13;95576.94;5073162;28;20428;-65
2022/04/11 08:02:00;;;;;;;4.72;2.40;;;;;;;12.95;35.67;95503.56;5073456;28;20535;-65
2022/04/11 08:04:25;;;;;;;2.50;2.10;;;;;;;12.73;35.66;95432.34;5073708;28;20484;-64
2022/04/11 08:06:51;;;;;;;3.33;1.70;;;;;;;12.82;35.13;95448.38;5073855;28;20031;-66
2022/04/11 08:09:16;;;;;;;3.10;2.30;;;;;;;13.53;34.79;95539.84;5073976;28;20529;-64
2022/04/11 08:11:42;;;;;;;3.38;2.58;;;;;;;12.38;34.91;95347.94;5073550;28;20021;-64
2022/04/11 08:14:07;;;;;;;3.35;2.30;;;;;;;13.54;34.88;95551.34;5072775;28;20048;-65
2022/04/11 08:16:32;;;;;;;2.60;2.40;;;;;;;13.01;34.81;95562.97;5073780;28;20035;-64
2022/04/11 08:18:58;;;;;;;3.05;2.05;;;;;;;12.66;35.01;95533.44;5073768;28;20024;-65
2022/04/11 08:21:23;;;;;;;3.90;2.35;;;;;;;12.79;35.49;95557.66;5073426;28;20032;-64
2022/04/11 08:23:49;;;;;;;2.90;2.60;;;;;;;11.89;35.32;95440.44;5073667;28;20462;-64
2022/04/11 08:26:14;;;;;;;2.72;2.53;;;;;;;12.46;35.86;95564.09;5073592;28;20524;-63
2022/04/11 08:28:40;;;;;;;2.30;2.10;;;;;;;11.61;35.64;95421.09;5054929;28;20031;-64
2022/04/11 08:31:05;;;;;;;3.35;2.45;;;;;;;12.47;35.85;95538.19;5072410;28;20035;-64
2022/04/11 08:33:31;;;;;;;3.28;2.53;;;;;;;11.48;35.98;95405.97;5073479;28;20139;-64
2022/04/11 08:35:56;;;;;;;4.72;2.72;;;;;;;12.56;36.11;95535.59;5073276;28;20117;-64
2022/04/11 08:38:22;;;;;;;2.90;2.45;;;;;;;12.41;36.67;95497.53;5073484;28;20062;-64
2022/04/11 08:40:50;;;;;;;7.28;2.58;;;;;;;11.43;36.75;95397.00;5071961;28;20031;-65
2022/04/11 08:43:19;;;;;;;3.83;2.65;;;;;;;11.30;37.35;95375.75;5073270;28;20191;-64
2022/04/11 08:45:45;;;;;;;5.80;2.95;;;;;;;12.12;36.99;95475.84;5072539;28;20062;-64
2022/04/11 08:48:11;;;;;;;4.93;2.80;;;;;;;11.70;37.06;95441.38;5073223;28;20025;-63
2022/04/11 08:50:36;;;;;;;2.88;2.55;;;;;;;11.31;37.19;95401.28;5073172;28;20078;-63
2022/04/11 08:53:02;;;;;;;3.80;2.97;;;;;;;11.13;38.07;95369.22;5073109;28;20051;-64
2022/04/11 08:55:27;;;;;;;3.05;2.42;;;;;;;10.45;37.69;95345.44;5073000;28;20411;-65
2022/04/11 08:57:53;;;;;;;2.95;2.60;;;;;;;11.62;37.74;95430.69;5073034;28;20723;-64
2022/04/11 09:00:22;;;;;;;4.40;2.85;;;;;;;10.85;36.57;95307.31;5071820;28;20111;-64
2022/04/11 09:02:48;;;;;;;2.40;2.15;;;;;;;10.90;36.70;95392.34;5073133;28;20024;-64
2022/04/11 09:05:23;;;;;;;4.22;2.58;;;;;;;11.61;37.11;95487.69;5055046;28;20028;-65
2022/04/11 09:07:53;;;;;;;3.58;2.95;;;;;;;12.33;36.42;95542.81;5072908;28;20031;-64
2022/04/11 09:10:30;;;;;;;4.82;2.42;;;;;;;11.82;36.08;95456.84;5072489;28;20047;-64
2022/04/11 09:12:58;;;;;;;3.40;2.50;;;;;;;11.85;35.97;95474.91;5072786;28;20036;-63
2022/04/11 09:15:24;;;;;;;2.65;2.40;;;;;;;11.83;35.13;95458.44;5071825;28;20039;-63
2022/04/11 09:17:51;;;;;;;3.17;1.90;;;;;;;11.71;34.31;95474.94;5072644;28;20024;-63
2022/04/11 09:20:20;;;;;;;3.65;1.83;;;;;;;12.34;34.97;95537.19;5072090;28;20123;-63
2022/04/11 09:22:45;;;;;;;2.03;1.92;;;;;;;11.45;34.04;95380.72;5072360;28;20024;-64
2022/04/11 09:25:23;;;;;;;3.58;2.10;;;;;;;12.68;34.25;95525.13;5072229;28;20101;-64
2022/04/11 09:28:07;;;;;;;2.22;1.90;;;;;;;12.82;34.47;95531.16;5072481;28;20081;-64
2022/04/11 09:30:33;;;;;;;2.42;1.85;;;;;;;13.14;34.16;95539.88;5070736;28;20039;-64
2022/04/11 09:33:09;;;;;;;3.45;2.05;;;;;;;12.72;34.11;95529.53;5054472;28;20527;-65
2022/04/11 09:35:38;;;;;;;3.05;2.10;;;;;;;12.51;34.06;95517.03;5072149;28;20095;-65
2022/04/11 09:38:14;;;;;;;3.15;1.95;;;;;;;12.66;33.94;95528.09;5072151;28;20492;-65
2022/04/11 09:40:48;;;;;;;3.35;2.00;;;;;;;12.88;33.97;95535.25;5072026;28;20032;-66
2022/04/11 09:43:14;;;;;;;3.55;1.95;;;;;;;12.92;33.67;95530.88;5072068;28;20031;-65
2022/04/11 09:45:45;;;;;;;2.20;1.67;;;;;;;12.85;33.59;95525.19;5071111;28;20028;-65
2022/04/11 09:48:16;;;;;;;2.70;1.70;;;;;;;12.79;33.24;95450.88;5071745;28;20044;-64
2022/04/11 09:50:42;;;;;;;2.33;2.00;;;;;;;12.98;32.65;95457.53;5071675;28;20028;-64
2022/04/11 09:53:15;;;;;;;2.95;1.95;;;;;;;12.81;32.68;95436.16;5071861;28;20951;-68
2022/04/11 09:55:43;;;;;;;4.15;1.98;;;;;;;13.34;32.01;95455.75;5071733;28;20032;-65
2022/04/11 09:58:09;;;;;;;3.38;1.60;;;;;;;13.83;31.73;95532.03;5071769;28;20052;-64
2022/04/11 10:00:40;;;;;;;4.95;1.92;;;;;;;12.97;31.40;95394.56;5070221;28;20473;-64
2022/04/11 10:03:06;;;;;;;2.75;1.90;;;;;;;13.51;31.15;95467.25;5071735;28;20082;-64
2022/04/11 10:05:36;;;;;;;2.13;1.45;;;;;;;14.07;31.49;95531.53;5071541;28;20037;-65
2022/04/11 10:08:09;;;;;;;4.82;2.22;;;;;;;12.60;32.21;95328.41;5071350;28;20029;-65
2022/04/11 10:10:39;;;;;;;2.22;1.95;;;;;;;13.09;31.86;95329.06;5070783;28;20021;-64
2022/04/11 10:13:11;;;;;;;2.00;1.80;;;;;;;14.03;31.51;95507.31;5071334;28;20024;-69
2022/04/11 10:15:37;;;;;;;3.70;1.83;;;;;;;14.41;31.88;95506.63;5071195;28;20029;-67
2022/04/11 10:18:04;;;;;;;2.05;1.70;;;;;;;13.97;31.80;95486.38;5071615;28;20115;-67
2022/04/11 10:20:36;;;;;;;2.25;1.75;;;;;;;14.29;31.65;95501.13;5071029;28;20024;-67
2022/04/11 10:23:10;;;;;;;;;;;;;;;14.53;30.93;95506.75;5053639;28;20103;-67
2022/04/11 10:25:50;;;;;;;3.38;1.95;;;;;;;14.62;31.16;95487.22;5070190;28;19974;-65
2022/04/11 10:28:27;;;;;;;2.45;1.95;;;;;;;14.15;31.64;95485.25;5053557;28;20070;-65
2022/04/11 10:31:07;;;;;;;3.55;1.77;;;;;;;14.38;31.19;95498.44;5071105;28;20044;-65
2022/04/11 10:33:54;;;;;;;2.95;1.80;;;;;;;14.60;29.34;95487.53;5071091;28;20016;-63
2022/04/11 10:36:27;;;;;;;2.08;1.52;;;;;;;14.70;29.27;95489.09;5071374;28;20024;-65
2022/04/11 10:39:14;;;;;;;1.85;1.75;;;;;;;14.77;28.78;95489.34;5071090;28;20032;-66
2022/04/11 10:41:57;;;;;;;1.92;1.52;;;;;;;14.94;29.33;95493.84;5070445;28;20028;-67
2022/04/11 10:44:43;;;;;;;3.45;1.80;;;;;;;15.09;29.25;95485.25;5070915;28;20070;-67
2022/04/11 10:47:11;;;;;;;2.45;1.63;;;;;;;14.39;29.72;95486.63;5071186;28;20086;-67
2022/04/11 10:49:48;;;;;;;1.65;1.55;;;;;;;14.77;29.52;95478.66;5071004;28;20063;-67
2022/04/11 10:52:36;;;;;;;1.63;1.52;;;;;;;14.98;29.02;95457.28;5070518;28;20103;-66
2022/04/11 10:55:06;;;;;;;2.15;1.73;;;;;;;14.91;28.14;95473.88;5070058;28;20035;-65
2022/04/11 10:57:50;;;;;;;3.88;1.98;;;;;;;15.17;28.71;95465.69;5070702;28;20021;-65
2022/04/11 11:00:18;;;;;;;2.15;1.52;;;;;;;15.21;28.77;95429.09;5070315;28;20021;-66
2022/04/11 11:02:52;;;;;;;1.85;1.67;;;;;;;15.41;29.21;95451.66;5070709;28;20024;-66
2022/04/11 11:05:27;;;;;;;1.90;1.80;;;;;;;15.25;29.61;95461.34;5070705;28;20055;-66
2022/04/11 11:08:09;;;;;;;2.30;1.98;;;;;;;15.47;29.90;95453.03;5070882;28;20027;-66
2022/04/11 11:10:48;;;;;;;2.78;2.00;;;;;;;15.81;29.14;95451.19;5069695;28;20039;-64
2022/04/11 11:13:31;;;;;;;3.38;1.67;;;;;;;15.94;29.32;95441.31;5071272;28;20021;-65
2022/04/11 11:16:00;;;;;;;2.10;1.90;;;;;;;15.84;28.89;95445.19;5070919;28;20036;-66
2022/04/11 11:18:26;;;;;;;2.65;1.73;;;;;;;15.74;28.43;95413.41;5070966;28;20020;-66
2022/04/11 11:20:57;;;;;;;2.95;1.77;;;;;;;15.76;28.87;95422.66;5070460;28;20101;-66
2022/04/11 11:23:30;;;;;;;2.15;1.80;;;;;;;15.74;27.47;95438.31;5052834;28;20159;-66
2022/04/11 11:26:08;;;;;;;2.70;1.50;;;;;;;15.91;27.34;95436.59;5069883;28;20028;-66
2022/04/11 11:28:33;;;;;;;2.53;2.30;;;;;;;15.28;28.37;95407.13;5052545;28;20028;-65
2022/04/11 11:30:58;;;;;;;2.53;1.80;;;;;;;15.28;28.61;95385.69;5070223;28;20082;-65
2022/04/11 11:33:26;;;;;;;2.55;1.60;;;;;;;15.55;28.49;95401.22;5070714;28;20024;-65
2022/04/11 11:35:54;;;;;;;2.35;1.60;;;;;;;15.75;28.55;95396.19;5070319;28;20024;-65
2022/04/11 11:38:31;;;;;;;4.47;1.85;;;;;;;15.93;27.53;95408.31;5070353;28;20562;-65
2022/04/11 11:40:58;;;;;;;3.00;1.50;;;;;;;15.88;27.55;95383.63;5069352;28;20480;-65